sensor_id;sensor_type;location;lat;lon;timestamp;temperature;humidity
4922;DHT22;16625;53.624;10.106;2024-03-23T00:55:27;6.00;99.90
4922;DHT22;16625;53.624;10.106;2024-03-23T00:57:53;6.00;99.90
4922;DHT22;16625;53.624;10.106;2024-03-23T01:00:20;6.00;99.90
4922;DHT22;16625;53.624;10.106;2024-03-23T01:02:48;6.00;1.00
4922;DHT22;16625;53.624;10.106;2024-03-23T01:05:15;6.00;1.00
4922;DHT22;16625;53.624;10.106;2024-03-23T01:07:41;6.00;1.00
4922;DHT22;16625;53.624;10.106;2024-03-23T01:10:10;6.10;1.00
4922;DHT22;16625;53.624;10.106;2024-03-23T01:12:36;6.00;1.00
4922;DHT22;16625;53.624;10.106;2024-03-23T01:15:04;5.90;99.90
4922;DHT22;16625;53.624;10.106;2024-03-23T01:17:30;5.80;1.00
4922;DHT22;16625;53.624;10.106;2024-03-23T01:19:57;5.80;1.00
4922;DHT22;16625;53.624;10.106;2024-03-23T01:22:23;5.80;99.90
4922;DHT22;16625;53.624;10.106;2024-03-23T01:24:52;6.20;99.90
4922;DHT22;16625;53.624;10.106;2024-03-23T01:27:20;5.70;1.00
4922;DHT22;16625;53.624;10.106;2024-03-23T01:29:50;5.70;91.50
4922;DHT22;16625;53.624;10.106;2024-03-23T01:32:19;5.70;99.90
4922;DHT22;16625;53.624;10.106;2024-03-23T01:34:46;5.70;99.90
4922;DHT22;16625;53.624;10.106;2024-03-23T01:37:12;5.70;99.90
4922;DHT22;16625;53.624;10.106;2024-03-23T01:39:40;5.70;1.00
4922;DHT22;16625;53.624;10.106;2024-03-23T01:42:05;5.70;1.00
4922;DHT22;16625;53.624;10.106;2024-03-23T01:44:35;5.70;1.00
4922;DHT22;16625;53.624;10.106;2024-03-23T01:47:01;5.60;1.00
4922;DHT22;16625;53.624;10.106;2024-03-23T01:49:28;5.60;24.30
4922;DHT22;16625;53.624;10.106;2024-03-23T01:51:55;5.50;99.90
4922;DHT22;16625;53.624;10.106;2024-03-23T01:54:22;5.50;1.00
4922;DHT22;16625;53.624;10.106;2024-03-23T01:56:48;5.50;1.00
4922;DHT22;16625;53.624;10.106;2024-03-23T01:59:19;5.80;99.90
4922;DHT22;16625;53.624;10.106;2024-03-23T02:01:47;5.40;1.00
4922;DHT22;16625;53.624;10.106;2024-03-23T02:04:14;5.50;99.90
4922;DHT22;16625;53.624;10.106;2024-03-23T02:06:39;5.40;99.90
4922;DHT22;16625;53.624;10.106;2024-03-23T02:09:06;5.40;99.90
4922;DHT22;16625;53.624;10.106;2024-03-23T02:11:33;5.40;99.90
4922;DHT22;16625;53.624;10.106;2024-03-23T02:13:59;5.30;99.90
4922;DHT22;16625;53.624;10.106;2024-03-23T02:16:25;5.30;1.00
4922;DHT22;16625;53.624;10.106;2024-03-23T02:18:55;5.50;1.00
4922;DHT22;16625;53.624;10.106;2024-03-23T02:21:21;5.30;42.20
4922;DHT22;16625;53.624;10.106;2024-03-23T02:27:11;5.20;99.90
4922;DHT22;16625;53.624;10.106;2024-03-23T02:29:38;5.20;99.90
4922;DHT22;16625;53.624;10.106;2024-03-23T02:32:05;5.30;99.90
4922;DHT22;16625;53.624;10.106;2024-03-23T02:34:32;5.10;99.90
4922;DHT22;16625;53.624;10.106;2024-03-23T02:36:59;5.00;99.90
4922;DHT22;16625;53.624;10.106;2024-03-23T02:39:25;5.00;99.90
4922;DHT22;16625;53.624;10.106;2024-03-23T02:41:52;5.00;99.90
4922;DHT22;16625;53.624;10.106;2024-03-23T02:44:19;5.10;99.90
4922;DHT22;16625;53.624;10.106;2024-03-23T02:46:46;4.90;99.90
4922;DHT22;16625;53.624;10.106;2024-03-23T02:49:13;5.50;99.90
4922;DHT22;16625;53.624;10.106;2024-03-23T02:51:40;4.90;99.90
4922;DHT22;16625;53.624;10.106;2024-03-23T02:54:06;5.60;99.90
4922;DHT22;16625;53.624;10.106;2024-03-23T02:56:34;5.30;99.90
4922;DHT22;16625;53.624;10.106;2024-03-23T02:58:59;4.80;99.90
4922;DHT22;16625;53.624;10.106;2024-03-23T03:01:31;4.80;99.90
4922;DHT22;16625;53.624;10.106;2024-03-23T03:03:57;4.80;99.90
4922;DHT22;16625;53.624;10.106;2024-03-23T03:06:24;4.80;99.90
4922;DHT22;16625;53.624;10.106;2024-03-23T03:08:50;4.70;99.90
4922;DHT22;16625;53.624;10.106;2024-03-23T03:11:23;5.00;99.90
4922;DHT22;16625;53.624;10.106;2024-03-23T03:13:52;5.10;99.90
4922;DHT22;16625;53.624;10.106;2024-03-23T03:16:19;5.30;99.90
4922;DHT22;16625;53.624;10.106;2024-03-23T03:18:48;4.80;99.90
4922;DHT22;16625;53.624;10.106;2024-03-23T03:21:15;5.70;99.90
4922;DHT22;16625;53.624;10.106;2024-03-23T03:23:42;5.20;99.90
4922;DHT22;16625;53.624;10.106;2024-03-23T03:26:09;4.80;99.90
4922;DHT22;16625;53.624;10.106;2024-03-23T03:28:35;4.80;99.90
4922;DHT22;16625;53.624;10.106;2024-03-23T03:31:03;4.90;99.90
4922;DHT22;16625;53.624;10.106;2024-03-23T03:33:33;4.80;99.90
4922;DHT22;16625;53.624;10.106;2024-03-23T03:36:01;4.70;99.90
4922;DHT22;16625;53.624;10.106;2024-03-23T03:38:27;4.80;99.90
4922;DHT22;16625;53.624;10.106;2024-03-23T03:40:54;4.80;99.90
4922;DHT22;16625;53.624;10.106;2024-03-23T03:43:21;5.40;99.90
4922;DHT22;16625;53.624;10.106;2024-03-23T03:45:51;4.80;99.90
4922;DHT22;16625;53.624;10.106;2024-03-23T03:48:17;5.50;99.90
4922;DHT22;16625;53.624;10.106;2024-03-23T03:50:46;4.70;99.90
4922;DHT22;16625;53.624;10.106;2024-03-23T03:53:13;4.70;99.90
4922;DHT22;16625;53.624;10.106;2024-03-23T03:55:42;4.70;99.90
4922;DHT22;16625;53.624;10.106;2024-03-23T03:58:08;4.70;99.90
4922;DHT22;16625;53.624;10.106;2024-03-23T04:00:35;5.30;99.90
4922;DHT22;16625;53.624;10.106;2024-03-23T04:03:01;4.70;99.90
4922;DHT22;16625;53.624;10.106;2024-03-23T04:05:28;5.30;99.90
4922;DHT22;16625;53.624;10.106;2024-03-23T04:07:56;4.70;99.90
4922;DHT22;16625;53.624;10.106;2024-03-23T04:10:25;4.70;99.90
4922;DHT22;16625;53.624;10.106;2024-03-23T04:12:52;4.60;99.90
4922;DHT22;16625;53.624;10.106;2024-03-23T04:15:20;4.60;99.90
4922;DHT22;16625;53.624;10.106;2024-03-23T04:17:45;4.60;99.90
4922;DHT22;16625;53.624;10.106;2024-03-23T04:20:14;4.50;99.90
4922;DHT22;16625;53.624;10.106;2024-03-23T04:22:42;4.50;99.90
4922;DHT22;16625;53.624;10.106;2024-03-23T04:25:09;4.40;99.90
4922;DHT22;16625;53.624;10.106;2024-03-23T04:27:38;4.60;99.90
4922;DHT22;16625;53.624;10.106;2024-03-23T04:30:06;5.00;99.90
4922;DHT22;16625;53.624;10.106;2024-03-23T04:32:37;4.30;99.90
4922;DHT22;16625;53.624;10.106;2024-03-23T04:35:08;4.30;99.90
4922;DHT22;16625;53.624;10.106;2024-03-23T04:37:35;4.30;99.90
4922;DHT22;16625;53.624;10.106;2024-03-23T04:40:03;4.30;99.90
4922;DHT22;16625;53.624;10.106;2024-03-23T04:42:30;4.30;99.90
4922;DHT22;16625;53.624;10.106;2024-03-23T04:45:00;4.30;99.90
4922;DHT22;16625;53.624;10.106;2024-03-23T04:47:28;4.20;99.90
4922;DHT22;16625;53.624;10.106;2024-03-23T04:49:55;4.20;99.90
4922;DHT22;16625;53.624;10.106;2024-03-23T04:52:22;4.20;99.90
4922;DHT22;16625;53.624;10.106;2024-03-23T04:54:49;4.20;99.90
4922;DHT22;16625;53.624;10.106;2024-03-23T04:57:16;4.30;99.90
4922;DHT22;16625;53.624;10.106;2024-03-23T04:59:43;4.30;99.90
4922;DHT22;16625;53.624;10.106;2024-03-23T05:02:12;4.30;99.90
4922;DHT22;16625;53.624;10.106;2024-03-23T05:04:38;4.30;99.90
4922;DHT22;16625;53.624;10.106;2024-03-23T05:07:06;4.20;99.90
4922;DHT22;16625;53.624;10.106;2024-03-23T05:09:32;4.20;99.90
4922;DHT22;16625;53.624;10.106;2024-03-23T05:11:59;4.20;99.90
4922;DHT22;16625;53.624;10.106;2024-03-23T05:14:25;4.30;99.90
4922;DHT22;16625;53.624;10.106;2024-03-23T05:16:52;4.30;99.90
4922;DHT22;16625;53.624;10.106;2024-03-23T05:19:21;4.30;99.90
4922;DHT22;16625;53.624;10.106;2024-03-23T05:21:50;4.30;99.90
4922;DHT22;16625;53.624;10.106;2024-03-23T05:24:16;4.30;99.90
4922;DHT22;16625;53.624;10.106;2024-03-23T05:26:43;4.50;99.90
4922;DHT22;16625;53.624;10.106;2024-03-23T05:29:08;4.40;99.90
4922;DHT22;16625;53.624;10.106;2024-03-23T05:31:39;4.40;99.90
4922;DHT22;16625;53.624;10.106;2024-03-23T05:34:07;4.90;99.90
4922;DHT22;16625;53.624;10.106;2024-03-23T05:36:39;4.50;99.90
4922;DHT22;16625;53.624;10.106;2024-03-23T05:39:06;4.60;99.90
4922;DHT22;16625;53.624;10.106;2024-03-23T05:41:34;4.60;99.90
4922;DHT22;16625;53.624;10.106;2024-03-23T05:44:02;4.60;99.90
4922;DHT22;16625;53.624;10.106;2024-03-23T05:46:29;4.80;99.90
4922;DHT22;16625;53.624;10.106;2024-03-23T05:49:01;4.80;99.90
4922;DHT22;16625;53.624;10.106;2024-03-23T05:51:28;5.20;99.90
4922;DHT22;16625;53.624;10.106;2024-03-23T05:53:57;4.80;99.90
4922;DHT22;16625;53.624;10.106;2024-03-23T05:56:23;4.80;99.90
4922;DHT22;16625;53.624;10.106;2024-03-23T05:58:51;4.90;99.90
4922;DHT22;16625;53.624;10.106;2024-03-23T06:01:18;4.90;99.90
4922;DHT22;16625;53.624;10.106;2024-03-23T06:03:44;4.90;99.90
4922;DHT22;16625;53.624;10.106;2024-03-23T06:06:11;4.90;99.90
4922;DHT22;16625;53.624;10.106;2024-03-23T06:08:39;4.90;99.90
4922;DHT22;16625;53.624;10.106;2024-03-23T06:11:13;4.90;99.90
4922;DHT22;16625;53.624;10.106;2024-03-23T06:13:40;4.90;99.90
4922;DHT22;16625;53.624;10.106;2024-03-23T06:16:09;5.00;99.90
4922;DHT22;16625;53.624;10.106;2024-03-23T06:18:35;5.00;99.90
4922;DHT22;16625;53.624;10.106;2024-03-23T06:21:03;5.20;99.90
4922;DHT22;16625;53.624;10.106;2024-03-23T06:23:31;5.20;99.90
4922;DHT22;16625;53.624;10.106;2024-03-23T06:25:58;5.30;99.90
4922;DHT22;16625;53.624;10.106;2024-03-23T06:28:25;5.40;99.90
4922;DHT22;16625;53.624;10.106;2024-03-23T06:30:52;6.00;99.90
4922;DHT22;16625;53.624;10.106;2024-03-23T06:33:18;5.50;99.90
4922;DHT22;16625;53.624;10.106;2024-03-23T06:35:50;6.20;99.90
4922;DHT22;16625;53.624;10.106;2024-03-23T06:38:16;5.50;99.90
4922;DHT22;16625;53.624;10.106;2024-03-23T06:40:42;5.60;99.90
4922;DHT22;16625;53.624;10.106;2024-03-23T06:43:12;5.80;99.90
4922;DHT22;16625;53.624;10.106;2024-03-23T06:45:41;5.70;99.90
4922;DHT22;16625;53.624;10.106;2024-03-23T06:48:08;5.80;99.90
4922;DHT22;16625;53.624;10.106;2024-03-23T06:50:35;5.90;99.90
4922;DHT22;16625;53.624;10.106;2024-03-23T06:53:01;5.90;99.90
4922;DHT22;16625;53.624;10.106;2024-03-23T06:55:33;6.10;99.90
4922;DHT22;16625;53.624;10.106;2024-03-23T06:57:59;6.00;99.90
4922;DHT22;16625;53.624;10.106;2024-03-23T07:00:26;6.10;99.90
4922;DHT22;16625;53.624;10.106;2024-03-23T07:02:57;6.10;99.90
4922;DHT22;16625;53.624;10.106;2024-03-23T07:05:24;6.20;99.90
4922;DHT22;16625;53.624;10.106;2024-03-23T07:07:53;6.10;99.90
4922;DHT22;16625;53.624;10.106;2024-03-23T07:10:21;6.10;99.90
4922;DHT22;16625;53.624;10.106;2024-03-23T07:12:46;6.00;99.90
4922;DHT22;16625;53.624;10.106;2024-03-23T07:15:15;6.00;99.90
4922;DHT22;16625;53.624;10.106;2024-03-23T07:17:41;5.90;99.90
4922;DHT22;16625;53.624;10.106;2024-03-23T07:20:13;5.90;99.90
4922;DHT22;16625;53.624;10.106;2024-03-23T07:22:39;5.90;99.90
4922;DHT22;16625;53.624;10.106;2024-03-23T07:25:07;6.10;99.90
4922;DHT22;16625;53.624;10.106;2024-03-23T07:27:33;6.20;99.90
4922;DHT22;16625;53.624;10.106;2024-03-23T07:30:01;6.30;99.90
4922;DHT22;16625;53.624;10.106;2024-03-23T07:32:27;6.40;99.90
4922;DHT22;16625;53.624;10.106;2024-03-23T07:34:57;6.50;99.90
4922;DHT22;16625;53.624;10.106;2024-03-23T07:37:29;6.60;99.90
4922;DHT22;16625;53.624;10.106;2024-03-23T07:39:56;6.90;99.90
4922;DHT22;16625;53.624;10.106;2024-03-23T07:42:31;7.00;1.00
4922;DHT22;16625;53.624;10.106;2024-03-23T07:44:58;7.10;1.00
4922;DHT22;16625;53.624;10.106;2024-03-23T07:47:25;7.10;1.00
4922;DHT22;16625;53.624;10.106;2024-03-23T07:49:53;7.10;1.00
4922;DHT22;16625;53.624;10.106;2024-03-23T07:52:20;7.10;1.00
4922;DHT22;16625;53.624;10.106;2024-03-23T07:54:51;7.20;99.90
4922;DHT22;16625;53.624;10.106;2024-03-23T07:57:19;7.20;1.00
4922;DHT22;16625;53.624;10.106;2024-03-23T07:59:44;7.20;99.90
4922;DHT22;16625;53.624;10.106;2024-03-23T08:02:11;7.20;64.20
4922;DHT22;16625;53.624;10.106;2024-03-23T08:04:37;7.30;1.00
4922;DHT22;16625;53.624;10.106;2024-03-23T08:07:05;7.50;1.00
4922;DHT22;16625;53.624;10.106;2024-03-23T08:09:31;7.60;1.00
4922;DHT22;16625;53.624;10.106;2024-03-23T08:12:00;7.70;1.00
4922;DHT22;16625;53.624;10.106;2024-03-23T08:14:25;7.90;99.90
4922;DHT22;16625;53.624;10.106;2024-03-23T08:16:54;8.00;99.90
4922;DHT22;16625;53.624;10.106;2024-03-23T08:19:20;8.10;99.90
4922;DHT22;16625;53.624;10.106;2024-03-23T08:21:47;8.10;8.80
4922;DHT22;16625;53.624;10.106;2024-03-23T08:24:14;8.20;1.00
4922;DHT22;16625;53.624;10.106;2024-03-23T08:26:42;8.40;1.00
4922;DHT22;16625;53.624;10.106;2024-03-23T08:29:11;8.40;1.00
4922;DHT22;16625;53.624;10.106;2024-03-23T08:31:38;8.50;99.90
4922;DHT22;16625;53.624;10.106;2024-03-23T08:34:04;8.50;99.90
4922;DHT22;16625;53.624;10.106;2024-03-23T08:36:31;8.60;99.90
4922;DHT22;16625;53.624;10.106;2024-03-23T08:38:57;8.70;99.90
4922;DHT22;16625;53.624;10.106;2024-03-23T08:41:24;8.80;60.70
4922;DHT22;16625;53.624;10.106;2024-03-23T08:43:51;8.90;1.00
4922;DHT22;16625;53.624;10.106;2024-03-23T08:46:19;8.90;1.00
4922;DHT22;16625;53.624;10.106;2024-03-23T08:48:46;9.30;1.00
4922;DHT22;16625;53.624;10.106;2024-03-23T08:51:15;9.70;1.00
4922;DHT22;16625;53.624;10.106;2024-03-23T08:53:42;9.50;99.90
4922;DHT22;16625;53.624;10.106;2024-03-23T08:56:09;10.20;99.90
4922;DHT22;16625;53.624;10.106;2024-03-23T08:58:36;9.70;99.90
4922;DHT22;16625;53.624;10.106;2024-03-23T09:01:05;9.70;99.90
4922;DHT22;16625;53.624;10.106;2024-03-23T09:03:33;9.60;90.00
4922;DHT22;16625;53.624;10.106;2024-03-23T09:06:01;9.60;25.40
4922;DHT22;16625;53.624;10.106;2024-03-23T09:08:27;9.80;1.00
4922;DHT22;16625;53.624;10.106;2024-03-23T09:10:54;9.80;1.00
4922;DHT22;16625;53.624;10.106;2024-03-23T09:13:20;9.90;1.00
4922;DHT22;16625;53.624;10.106;2024-03-23T09:15:48;9.90;1.00
4922;DHT22;16625;53.624;10.106;2024-03-23T09:18:14;10.60;1.00
4922;DHT22;16625;53.624;10.106;2024-03-23T09:20:43;10.20;1.00
4922;DHT22;16625;53.624;10.106;2024-03-23T09:23:09;10.50;99.90
4922;DHT22;16625;53.624;10.106;2024-03-23T09:25:37;10.90;99.90
4922;DHT22;16625;53.624;10.106;2024-03-23T09:28:04;10.90;99.90
4922;DHT22;16625;53.624;10.106;2024-03-23T09:30:32;10.90;99.90
4922;DHT22;16625;53.624;10.106;2024-03-23T09:32:57;10.90;99.90
4922;DHT22;16625;53.624;10.106;2024-03-23T09:35:24;10.40;99.90
4922;DHT22;16625;53.624;10.106;2024-03-23T09:37:52;10.20;80.90
4922;DHT22;16625;53.624;10.106;2024-03-23T09:40:19;9.70;1.00
4922;DHT22;16625;53.624;10.106;2024-03-23T09:42:49;9.20;1.00
4922;DHT22;16625;53.624;10.106;2024-03-23T09:45:21;8.90;1.00
4922;DHT22;16625;53.624;10.106;2024-03-23T09:47:47;8.80;1.00
4922;DHT22;16625;53.624;10.106;2024-03-23T09:50:16;8.70;1.00
4922;DHT22;16625;53.624;10.106;2024-03-23T09:52:42;8.80;1.00
4922;DHT22;16625;53.624;10.106;2024-03-23T09:55:10;8.90;1.00
4922;DHT22;16625;53.624;10.106;2024-03-23T09:57:36;9.20;1.00
4922;DHT22;16625;53.624;10.106;2024-03-23T10:00:04;9.40;1.00
4922;DHT22;16625;53.624;10.106;2024-03-23T10:02:30;9.60;1.00
4922;DHT22;16625;53.624;10.106;2024-03-23T10:04:57;9.80;1.00
4922;DHT22;16625;53.624;10.106;2024-03-23T10:07:23;10.10;99.90
4922;DHT22;16625;53.624;10.106;2024-03-23T10:09:50;9.90;99.90
4922;DHT22;16625;53.624;10.106;2024-03-23T10:12:19;9.80;99.90
4922;DHT22;16625;53.624;10.106;2024-03-23T10:14:46;9.60;99.90
4922;DHT22;16625;53.624;10.106;2024-03-23T10:17:14;9.50;99.90
4922;DHT22;16625;53.624;10.106;2024-03-23T10:19:43;9.30;99.90
4922;DHT22;16625;53.624;10.106;2024-03-23T10:22:12;9.20;99.90
4922;DHT22;16625;53.624;10.106;2024-03-23T10:24:39;9.20;99.90
4922;DHT22;16625;53.624;10.106;2024-03-23T10:27:05;9.40;99.90
4922;DHT22;16625;53.624;10.106;2024-03-23T10:29:34;9.70;99.90
4922;DHT22;16625;53.624;10.106;2024-03-23T10:32:09;10.10;99.90
4922;DHT22;16625;53.624;10.106;2024-03-23T10:34:36;10.30;99.90
4922;DHT22;16625;53.624;10.106;2024-03-23T10:37:03;10.20;99.90
4922;DHT22;16625;53.624;10.106;2024-03-23T10:39:34;10.40;99.90
4922;DHT22;16625;53.624;10.106;2024-03-23T10:42:02;10.60;99.90
4922;DHT22;16625;53.624;10.106;2024-03-23T10:44:30;10.70;99.90
4922;DHT22;16625;53.624;10.106;2024-03-23T10:46:58;10.70;99.90
4922;DHT22;16625;53.624;10.106;2024-03-23T10:49:27;10.60;99.90
4922;DHT22;16625;53.624;10.106;2024-03-23T10:51:59;10.20;99.90
4922;DHT22;16625;53.624;10.106;2024-03-23T10:54:26;9.80;99.90
4922;DHT22;16625;53.624;10.106;2024-03-23T10:56:57;9.60;97.90
4922;DHT22;16625;53.624;10.106;2024-03-23T10:59:24;9.40;86.50
4922;DHT22;16625;53.624;10.106;2024-03-23T11:01:54;9.70;93.90
4922;DHT22;16625;53.624;10.106;2024-03-23T11:04:32;9.90;93.40
4922;DHT22;16625;53.624;10.106;2024-03-23T11:06:58;10.20;96.20
4922;DHT22;16625;53.624;10.106;2024-03-23T11:09:38;10.50;93.40
4922;DHT22;16625;53.624;10.106;2024-03-23T11:12:24;10.90;61.20
4922;DHT22;16625;53.624;10.106;2024-03-23T11:14:53;10.60;63.40
4922;DHT22;16625;53.624;10.106;2024-03-23T11:17:20;10.90;38.70
4922;DHT22;16625;53.624;10.106;2024-03-23T11:19:54;11.10;9.80
4922;DHT22;16625;53.624;10.106;2024-03-23T11:22:42;11.20;1.00
4922;DHT22;16625;53.624;10.106;2024-03-23T11:25:17;11.60;1.00
4922;DHT22;16625;53.624;10.106;2024-03-23T11:27:44;11.60;1.00
4922;DHT22;16625;53.624;10.106;2024-03-23T11:30:16;11.10;1.00
4922;DHT22;16625;53.624;10.106;2024-03-23T11:32:42;10.90;1.00
4922;DHT22;16625;53.624;10.106;2024-03-23T11:35:25;10.50;1.00
4922;DHT22;16625;53.624;10.106;2024-03-23T11:38:02;10.20;1.00
4922;DHT22;16625;53.624;10.106;2024-03-23T11:40:29;10.30;1.00
4922;DHT22;16625;53.624;10.106;2024-03-23T11:42:56;10.70;1.00
4922;DHT22;16625;53.624;10.106;2024-03-23T11:45:23;10.90;1.00
4922;DHT22;16625;53.624;10.106;2024-03-23T11:47:49;10.90;1.00
4922;DHT22;16625;53.624;10.106;2024-03-23T11:50:29;10.80;1.00
4922;DHT22;16625;53.624;10.106;2024-03-23T11:53:06;10.90;1.00
4922;DHT22;16625;53.624;10.106;2024-03-23T11:55:42;10.90;1.00
4922;DHT22;16625;53.624;10.106;2024-03-23T11:58:09;10.80;1.00
4922;DHT22;16625;53.624;10.106;2024-03-23T12:00:36;10.70;1.00
4922;DHT22;16625;53.624;10.106;2024-03-23T12:03:03;10.40;1.00
4922;DHT22;16625;53.624;10.106;2024-03-23T12:05:32;10.10;1.00
4922;DHT22;16625;53.624;10.106;2024-03-23T12:08:17;9.90;1.00
4922;DHT22;16625;53.624;10.106;2024-03-23T12:10:47;9.60;1.00
4922;DHT22;16625;53.624;10.106;2024-03-23T12:13:16;8.50;1.00
4922;DHT22;16625;53.624;10.106;2024-03-23T12:15:44;7.80;1.00
4922;DHT22;16625;53.624;10.106;2024-03-23T12:18:11;7.30;1.00
4922;DHT22;16625;53.624;10.106;2024-03-23T12:20:39;6.80;26.70
4922;DHT22;16625;53.624;10.106;2024-03-23T12:23:06;6.70;99.90
4922;DHT22;16625;53.624;10.106;2024-03-23T12:25:35;6.40;99.90
4922;DHT22;16625;53.624;10.106;2024-03-23T12:28:02;6.30;99.90
4922;DHT22;16625;53.624;10.106;2024-03-23T12:30:32;6.50;99.90
4922;DHT22;16625;53.624;10.106;2024-03-23T12:32:58;7.00;99.90
4922;DHT22;16625;53.624;10.106;2024-03-23T12:35:25;7.40;99.90
4922;DHT22;16625;53.624;10.106;2024-03-23T12:37:52;7.80;99.90
4922;DHT22;16625;53.624;10.106;2024-03-23T12:40:20;8.20;88.40
4922;DHT22;16625;53.624;10.106;2024-03-23T12:42:45;8.20;14.20
4922;DHT22;16625;53.624;10.106;2024-03-23T12:45:13;8.20;47.50
4922;DHT22;16625;53.624;10.106;2024-03-23T12:47:39;8.00;1.00
4922;DHT22;16625;53.624;10.106;2024-03-23T12:50:06;7.70;1.00
4922;DHT22;16625;53.624;10.106;2024-03-23T12:52:33;7.60;1.00
4922;DHT22;16625;53.624;10.106;2024-03-23T12:55:04;7.30;1.00
4922;DHT22;16625;53.624;10.106;2024-03-23T12:57:31;7.00;28.60
4922;DHT22;16625;53.624;10.106;2024-03-23T12:59:59;6.80;99.90
4922;DHT22;16625;53.624;10.106;2024-03-23T13:02:25;6.50;99.90
4922;DHT22;16625;53.624;10.106;2024-03-23T13:04:53;6.10;99.90
4922;DHT22;16625;53.624;10.106;2024-03-23T13:07:20;6.10;99.90
4922;DHT22;16625;53.624;10.106;2024-03-23T13:09:49;6.10;99.90
4922;DHT22;16625;53.624;10.106;2024-03-23T13:12:17;6.30;99.90
4922;DHT22;16625;53.624;10.106;2024-03-23T13:14:46;6.30;99.90
4922;DHT22;16625;53.624;10.106;2024-03-23T13:17:12;6.40;99.90
4922;DHT22;16625;53.624;10.106;2024-03-23T13:19:39;6.80;99.90
4922;DHT22;16625;53.624;10.106;2024-03-23T13:22:05;6.70;99.90
4922;DHT22;16625;53.624;10.106;2024-03-23T13:24:32;6.80;99.90
4922;DHT22;16625;53.624;10.106;2024-03-23T13:26:58;7.00;99.90
4922;DHT22;16625;53.624;10.106;2024-03-23T13:29:27;7.10;99.90
4922;DHT22;16625;53.624;10.106;2024-03-23T13:31:54;7.70;99.90
4922;DHT22;16625;53.624;10.106;2024-03-23T13:34:19;7.50;99.90
4922;DHT22;16625;53.624;10.106;2024-03-23T13:36:47;7.50;32.20
4922;DHT22;16625;53.624;10.106;2024-03-23T13:39:14;7.60;63.00
4922;DHT22;16625;53.624;10.106;2024-03-23T13:41:42;7.70;55.10
4922;DHT22;16625;53.624;10.106;2024-03-23T13:44:10;7.90;4.00
4922;DHT22;16625;53.624;10.106;2024-03-23T13:46:40;7.70;1.00
4922;DHT22;16625;53.624;10.106;2024-03-23T13:49:18;7.90;1.00
4922;DHT22;16625;53.624;10.106;2024-03-23T13:51:51;8.00;1.00
4922;DHT22;16625;53.624;10.106;2024-03-23T13:54:17;8.20;1.00
4922;DHT22;16625;53.624;10.106;2024-03-23T13:56:44;8.20;1.00
4922;DHT22;16625;53.624;10.106;2024-03-23T13:59:10;8.40;1.00
4922;DHT22;16625;53.624;10.106;2024-03-23T14:01:39;8.50;1.00
4922;DHT22;16625;53.624;10.106;2024-03-23T14:04:04;8.50;1.00
4922;DHT22;16625;53.624;10.106;2024-03-23T14:06:32;8.40;1.00
4922;DHT22;16625;53.624;10.106;2024-03-23T14:08:57;8.40;1.00
4922;DHT22;16625;53.624;10.106;2024-03-23T14:11:24;8.40;1.00
4922;DHT22;16625;53.624;10.106;2024-03-23T14:13:52;8.20;1.00
4922;DHT22;16625;53.624;10.106;2024-03-23T14:16:19;8.10;1.00
4922;DHT22;16625;53.624;10.106;2024-03-23T14:18:47;8.00;1.00
4922;DHT22;16625;53.624;10.106;2024-03-23T14:21:14;7.90;1.00
4922;DHT22;16625;53.624;10.106;2024-03-23T14:23:40;7.90;1.00
4922;DHT22;16625;53.624;10.106;2024-03-23T14:26:07;8.00;1.00
4922;DHT22;16625;53.624;10.106;2024-03-23T14:28:33;8.10;1.00
4922;DHT22;16625;53.624;10.106;2024-03-23T14:31:00;8.30;1.00
4922;DHT22;16625;53.624;10.106;2024-03-23T14:33:27;8.50;1.00
4922;DHT22;16625;53.624;10.106;2024-03-23T14:35:55;8.60;1.00
4922;DHT22;16625;53.624;10.106;2024-03-23T14:38:23;8.70;1.00
4922;DHT22;16625;53.624;10.106;2024-03-23T14:40:50;8.90;1.00
4922;DHT22;16625;53.624;10.106;2024-03-23T14:43:16;9.30;1.00
4922;DHT22;16625;53.624;10.106;2024-03-23T14:46:06;9.40;1.00
4922;DHT22;16625;53.624;10.106;2024-03-23T14:48:32;9.30;1.00
4922;DHT22;16625;53.624;10.106;2024-03-23T14:51:05;9.20;1.00
4922;DHT22;16625;53.624;10.106;2024-03-23T14:53:31;9.00;1.00
4922;DHT22;16625;53.624;10.106;2024-03-23T14:55:59;8.70;1.00
4922;DHT22;16625;53.624;10.106;2024-03-23T14:58:26;8.60;1.00
4922;DHT22;16625;53.624;10.106;2024-03-23T15:01:00;9.00;1.00
4922;DHT22;16625;53.624;10.106;2024-03-23T15:03:27;8.40;1.00
4922;DHT22;16625;53.624;10.106;2024-03-23T15:05:55;8.30;1.00
4922;DHT22;16625;53.624;10.106;2024-03-23T15:08:22;8.10;1.00
4922;DHT22;16625;53.624;10.106;2024-03-23T15:10:49;8.00;1.00
4922;DHT22;16625;53.624;10.106;2024-03-23T15:13:16;8.00;1.00
4922;DHT22;16625;53.624;10.106;2024-03-23T15:15:44;7.80;1.00
4922;DHT22;16625;53.624;10.106;2024-03-23T15:18:11;7.70;1.00
4922;DHT22;16625;53.624;10.106;2024-03-23T15:20:40;7.50;1.00
4922;DHT22;16625;53.624;10.106;2024-03-23T15:23:06;7.40;11.70
4922;DHT22;16625;53.624;10.106;2024-03-23T15:25:35;7.40;25.60
4922;DHT22;16625;53.624;10.106;2024-03-23T15:28:01;7.40;39.20
4922;DHT22;16625;53.624;10.106;2024-03-23T15:30:30;7.50;4.50
4922;DHT22;16625;53.624;10.106;2024-03-23T15:32:56;7.60;2.80
4922;DHT22;16625;53.624;10.106;2024-03-23T15:35:23;7.60;24.90
4922;DHT22;16625;53.624;10.106;2024-03-23T15:37:49;7.60;99.90
4922;DHT22;16625;53.624;10.106;2024-03-23T15:40:16;7.60;84.60
4922;DHT22;16625;53.624;10.106;2024-03-23T15:42:44;7.50;1.00
4922;DHT22;16625;53.624;10.106;2024-03-23T15:45:12;7.60;1.00
4922;DHT22;16625;53.624;10.106;2024-03-23T15:47:38;7.50;1.00
4922;DHT22;16625;53.624;10.106;2024-03-23T15:50:07;7.50;1.00
4922;DHT22;16625;53.624;10.106;2024-03-23T15:52:34;7.40;1.00
4922;DHT22;16625;53.624;10.106;2024-03-23T15:55:02;7.40;1.00
4922;DHT22;16625;53.624;10.106;2024-03-23T15:57:32;7.30;1.00
4922;DHT22;16625;53.624;10.106;2024-03-23T16:00:03;7.20;1.00
4922;DHT22;16625;53.624;10.106;2024-03-23T16:02:29;7.10;1.00
4922;DHT22;16625;53.624;10.106;2024-03-23T16:04:56;7.10;1.00
4922;DHT22;16625;53.624;10.106;2024-03-23T16:07:23;7.10;1.00
4922;DHT22;16625;53.624;10.106;2024-03-23T16:09:50;7.20;12.70
4922;DHT22;16625;53.624;10.106;2024-03-23T16:12:17;7.10;1.00
4922;DHT22;16625;53.624;10.106;2024-03-23T16:14:46;7.10;13.00
4922;DHT22;16625;53.624;10.106;2024-03-23T16:17:13;7.00;12.30
4922;DHT22;16625;53.624;10.106;2024-03-23T16:19:40;7.00;58.70
4922;DHT22;16625;53.624;10.106;2024-03-23T16:22:06;7.00;29.20
4922;DHT22;16625;53.624;10.106;2024-03-23T16:24:33;7.00;49.80
4922;DHT22;16625;53.624;10.106;2024-03-23T16:26:59;6.90;99.90
4922;DHT22;16625;53.624;10.106;2024-03-23T16:29:26;6.90;99.90
4922;DHT22;16625;53.624;10.106;2024-03-23T16:31:52;6.80;99.90
4922;DHT22;16625;53.624;10.106;2024-03-23T16:34:20;6.80;99.90
4922;DHT22;16625;53.624;10.106;2024-03-23T16:36:46;6.80;99.90
4922;DHT22;16625;53.624;10.106;2024-03-23T16:39:13;6.70;99.90
4922;DHT22;16625;53.624;10.106;2024-03-23T16:41:40;6.50;99.90
4922;DHT22;16625;53.624;10.106;2024-03-23T16:44:07;6.20;99.90
4922;DHT22;16625;53.624;10.106;2024-03-23T16:46:33;6.10;99.90
4922;DHT22;16625;53.624;10.106;2024-03-23T16:49:01;5.90;1.00
4922;DHT22;16625;53.624;10.106;2024-03-23T16:51:28;5.80;99.90